createdAt,value
2023-04-14T00:02:39.234Z,99261.69
2023-04-14T00:05:41.825Z,99267.97
2023-04-14T00:08:44.223Z,99266.19
2023-04-14T00:11:46.713Z,99260.50
2023-04-14T00:14:49.722Z,99265.69
2023-04-14T00:17:53.071Z,99247.16
2023-04-14T00:20:55.740Z,99240.63
2023-04-14T00:23:58.094Z,99250.81
2023-04-14T00:27:01.325Z,99279.91
2023-04-14T00:30:04.113Z,99279.91
2023-04-14T00:33:10.080Z,99267.78
2023-04-14T00:36:12.473Z,99281.38
2023-04-14T00:39:15.012Z,99234.50
2023-04-14T00:42:17.679Z,99255.38
2023-04-14T00:45:20.294Z,99274.75
2023-04-14T00:48:22.724Z,99279.13
2023-04-14T00:51:27.083Z,99262.78
2023-04-14T00:54:31.371Z,99278.63
2023-04-14T00:57:34.262Z,99251.84
2023-04-14T01:00:37.911Z,99264.00
2023-04-14T01:03:40.992Z,99219.44
2023-04-14T01:06:43.592Z,99240.59
2023-04-14T01:09:46.185Z,99237.03
2023-04-14T01:13:13.885Z,99258.81
2023-04-14T01:16:23.243Z,99258.06
2023-04-14T01:19:27.325Z,99248.63
2023-04-14T01:22:31.862Z,99212.16
2023-04-14T01:25:34.198Z,99220.94
2023-04-14T01:28:58.841Z,99200.25
2023-04-14T01:32:11.615Z,99213.81
2023-04-14T01:35:20.839Z,99212.91
2023-04-14T01:38:29.626Z,99195.84
2023-04-14T01:41:34.450Z,99188.06
2023-04-14T01:44:40.668Z,99173.91
2023-04-14T01:47:44.659Z,99160.72
2023-04-14T01:50:48.745Z,99161.94
2023-04-14T01:53:55.327Z,99196.28
2023-04-14T01:57:01.829Z,99187.22
2023-04-14T02:00:07.728Z,99167.53
2023-04-14T02:03:19.785Z,99156.91
2023-04-14T02:06:24.050Z,99173.25
2023-04-14T02:09:30.540Z,99185.09
2023-04-14T02:12:33.514Z,99197.16
2023-04-14T02:15:37.109Z,99195.28
2023-04-14T02:18:41.477Z,99188.59
2023-04-14T02:21:45.634Z,99188.31
2023-04-14T02:24:48.262Z,99154.19
2023-04-14T02:27:57.031Z,99164.19
2023-04-14T02:31:05.627Z,99157.34
2023-04-14T02:34:11.569Z,99163.25
2023-04-14T02:37:22.165Z,99192.63
2023-04-14T02:40:31.233Z,99180.69
2023-04-14T02:43:41.859Z,99163.38
2023-04-14T02:46:52.898Z,99162.34
2023-04-14T02:49:56.994Z,99191.41
2023-04-14T02:53:02.393Z,99159.06
2023-04-14T02:56:10.443Z,99144.38
2023-04-14T02:59:17.546Z,99151.25
2023-04-14T03:02:30.069Z,99143.13
2023-04-14T03:05:41.661Z,99140.03
2023-04-14T03:08:47.523Z,99155.00
2023-04-14T03:11:52.336Z,99150.13
2023-04-14T03:14:55.918Z,99158.13
2023-04-14T03:17:59.757Z,99081.53
2023-04-14T03:21:05.185Z,99135.34
2023-04-14T03:24:10.393Z,99149.91
2023-04-14T03:27:22.912Z,99128.88
2023-04-14T03:30:30.512Z,99123.78
2023-04-14T03:33:35.466Z,99098.41
2023-04-14T03:36:39.518Z,99089.22
2023-04-14T03:39:43.356Z,99107.13
2023-04-14T03:42:48.818Z,99083.59
2023-04-14T03:45:54.736Z,99094.22
2023-04-14T03:48:59.669Z,99094.81
2023-04-14T03:52:10.533Z,99096.91
2023-04-14T03:55:15.108Z,99069.63
2023-04-14T03:58:18.978Z,99093.66
2023-04-14T04:01:25.988Z,99058.91
2023-04-14T04:04:31.025Z,99091.28
2023-04-14T04:07:35.812Z,99073.94
2023-04-14T04:10:39.600Z,99076.97
2023-04-14T04:13:42.274Z,99070.09
2023-04-14T04:16:49.687Z,99027.66
2023-04-14T04:19:54.758Z,99044.19
2023-04-14T04:23:00.584Z,99078.66
2023-04-14T04:26:03.738Z,99081.25
2023-04-14T04:29:12.162Z,99028.97
2023-04-14T04:32:14.860Z,99063.19
2023-04-14T04:35:18.056Z,99095.72
2023-04-14T04:38:22.896Z,99095.91
2023-04-14T04:41:30.213Z,99086.75
2023-04-14T04:44:36.341Z,99067.00
2023-04-14T04:47:39.656Z,99084.13
2023-04-14T04:50:42.322Z,99070.16
2023-04-14T04:53:44.758Z,99091.53
2023-04-14T04:56:47.199Z,99096.69
2023-04-14T04:59:49.620Z,99073.09
2023-04-14T05:02:52.482Z,99084.91
2023-04-14T05:05:54.930Z,99053.94
2023-04-14T05:08:57.574Z,99097.56
2023-04-14T05:12:00.677Z,99103.13
2023-04-14T05:15:03.620Z,99085.00
2023-04-14T05:18:06.612Z,99078.13
2023-04-14T05:21:11.481Z,99110.88
2023-04-14T05:24:13.861Z,99085.22
2023-04-14T05:27:16.479Z,99084.44
2023-04-14T05:30:18.910Z,99092.59
2023-04-14T05:33:21.504Z,99097.03
2023-04-14T05:36:23.882Z,99082.81
2023-04-14T05:39:27.126Z,99058.97
2023-04-14T05:42:29.617Z,99088.22
2023-04-14T05:45:32.217Z,99068.03
2023-04-14T05:48:37.601Z,99042.78
2023-04-14T05:51:40.737Z,99077.50
2023-04-14T05:54:43.410Z,99058.34
2023-04-14T05:57:46.421Z,99051.38
2023-04-14T06:00:48.924Z,99049.19
2023-04-14T06:03:51.441Z,99054.84
2023-04-14T06:06:53.997Z,99049.75
2023-04-14T06:09:56.489Z,99049.19
2023-04-14T06:12:58.963Z,99065.53
2023-04-14T06:16:01.478Z,99064.13
2023-04-14T06:19:04.399Z,99047.16
2023-04-14T06:22:08.572Z,99043.22
2023-04-14T06:25:11.227Z,99056.50
2023-04-14T06:28:14.776Z,99036.00
2023-04-14T06:31:17.258Z,99052.84
2023-04-14T06:34:19.935Z,99053.44
2023-04-14T06:37:22.414Z,99063.16
2023-04-14T06:40:24.936Z,99078.00
2023-04-14T06:43:28.928Z,99064.47
2023-04-14T06:46:31.398Z,99065.91
2023-04-14T06:49:33.820Z,99064.94
2023-04-14T06:52:36.330Z,99073.69
2023-04-14T06:55:41.881Z,99064.91
2023-04-14T06:58:44.391Z,99038.94
2023-04-14T07:01:47.168Z,99044.03
2023-04-14T07:04:49.912Z,99038.56
2023-04-14T07:07:52.276Z,99023.88
2023-04-14T07:10:59.452Z,99021.50
2023-04-14T07:14:02.243Z,99049.28
2023-04-14T07:17:04.920Z,99037.19
2023-04-14T07:20:08.038Z,99042.97
2023-04-14T07:23:10.549Z,99028.75
2023-04-14T07:26:13.414Z,99004.53
2023-04-14T07:29:16.733Z,99013.94
2023-04-14T07:32:19.144Z,98974.78
2023-04-14T07:35:24.290Z,98988.72
2023-04-14T07:38:27.742Z,98993.06
2023-04-14T07:41:30.338Z,98978.09
2023-04-14T07:44:33.354Z,99001.00
2023-04-14T07:47:36.083Z,98969.91
2023-04-14T07:50:38.475Z,98951.34
2023-04-14T07:53:43.464Z,98989.38
2023-04-14T07:56:46.697Z,98969.00
2023-04-14T07:59:49.307Z,98988.91
2023-04-14T08:02:51.844Z,98995.75
2023-04-14T08:05:54.383Z,98981.38
2023-04-14T08:08:57.056Z,98999.78
2023-04-14T08:11:59.816Z,98969.78
2023-04-14T08:15:02.203Z,98987.63
2023-04-14T08:18:05.348Z,98973.44
2023-04-14T08:21:08.011Z,98983.88
2023-04-14T08:24:10.621Z,98958.41
2023-04-14T08:27:12.977Z,98985.94
2023-04-14T08:30:15.710Z,98951.97
2023-04-14T08:33:18.180Z,98960.97
2023-04-14T08:36:21.083Z,98978.44
2023-04-14T08:39:23.614Z,98980.47
2023-04-14T08:42:26.252Z,98961.44
2023-04-14T08:45:30.518Z,98960.16
2023-04-14T08:48:35.917Z,98991.28
2023-04-14T08:51:42.769Z,98962.50
2023-04-14T08:54:49.733Z,98974.81
2023-04-14T08:57:52.598Z,98981.41
2023-04-14T09:00:55.801Z,98969.88
2023-04-14T09:03:58.972Z,98939.78
2023-04-14T09:07:05.271Z,98977.81
2023-04-14T09:10:09.449Z,98955.28
2023-04-14T09:13:12.907Z,98978.38
2023-04-14T09:16:16.821Z,98954.31
2023-04-14T09:19:24.398Z,98978.13
2023-04-14T09:22:27.765Z,98970.47
2023-04-14T09:25:30.510Z,98920.88
2023-04-14T09:28:33.148Z,98955.28
2023-04-14T09:31:36.721Z,98955.97
2023-04-14T09:34:55.747Z,98927.66
2023-04-14T09:38:00.090Z,98934.81
2023-04-14T09:41:04.007Z,98943.34
2023-04-14T09:44:10.085Z,98927.66
2023-04-14T09:47:15.411Z,98935.34
2023-04-14T09:50:17.967Z,98925.06
2023-04-14T09:53:33.608Z,98921.75
2023-04-14T09:56:36.448Z,98948.78
2023-04-14T09:59:39.230Z,98925.97
2023-04-14T10:02:56.049Z,98955.59
2023-04-14T10:05:58.683Z,98946.25
2023-04-14T10:09:01.640Z,98946.09
2023-04-14T10:12:12.792Z,98939.81
2023-04-14T10:15:15.598Z,98919.50
2023-04-14T10:18:32.870Z,98947.66
2023-04-14T10:21:35.773Z,98900.91
2023-04-14T10:24:39.943Z,98927.06
2023-04-14T10:27:43.124Z,98948.69
2023-04-14T10:30:46.653Z,98939.31
2023-04-14T10:33:49.894Z,98945.69
2023-04-14T10:36:52.450Z,98933.69
2023-04-14T10:39:56.433Z,98952.88
2023-04-14T10:42:58.964Z,98956.59
2023-04-14T10:46:01.716Z,98936.28
2023-04-14T10:49:04.257Z,98952.13
2023-04-14T10:52:27.212Z,99023.53
2023-04-14T10:55:29.808Z,99029.19
2023-04-14T10:58:34.890Z,99009.09
2023-04-14T11:01:38.454Z,98993.78
2023-04-14T11:04:58.722Z,99020.66
2023-04-14T11:08:03.273Z,99022.59
2023-04-14T11:11:07.055Z,99042.66
2023-04-14T11:14:12.661Z,98997.34
2023-04-14T11:17:24.412Z,99005.84
2023-04-14T11:20:26.949Z,99007.91
2023-04-14T11:23:29.479Z,98997.91
2023-04-14T11:26:31.861Z,99026.31
2023-04-14T11:29:34.379Z,99018.63
2023-04-14T11:32:58.137Z,99042.44
2023-04-14T11:36:02.934Z,99040.47
2023-04-14T11:39:08.959Z,99040.34
2023-04-14T11:42:12.995Z,99012.69
2023-04-14T11:45:15.745Z,99029.50
2023-04-14T11:48:20.362Z,99019.44
2023-04-14T11:51:29.585Z,99032.91
2023-04-14T11:54:39.218Z,99021.22
2023-04-14T11:57:50.862Z,98971.56
2023-04-14T12:00:56.200Z,99043.41
2023-04-14T12:03:59.622Z,99021.22
2023-04-14T12:07:02.306Z,99025.38
2023-04-14T12:10:06.215Z,99053.09
2023-04-14T12:13:10.491Z,99030.28
2023-04-14T12:16:15.041Z,99031.69
2023-04-14T12:19:17.508Z,99033.34
2023-04-14T12:22:28.165Z,99061.81
2023-04-14T12:25:33.656Z,99063.00
2023-04-14T12:28:37.219Z,99045.69
2023-04-14T12:31:44.001Z,99068.25
2023-04-14T12:34:54.948Z,99073.03
2023-04-14T12:37:57.326Z,99055.72
2023-04-14T12:41:00.490Z,99059.53
2023-04-14T12:44:14.986Z,99060.41
2023-04-14T12:47:30.362Z,99075.59
2023-04-14T12:50:33.544Z,99075.72
2023-04-14T12:53:35.918Z,99060.44
2023-04-14T12:56:42.589Z,99085.69
2023-04-14T12:59:45.796Z,99063.88
2023-04-14T13:02:49.683Z,99098.41
2023-04-14T13:05:54.920Z,99078.22
2023-04-14T13:08:58.263Z,99094.38
2023-04-14T13:12:00.676Z,99071.34
2023-04-14T13:15:04.020Z,99089.59
2023-04-14T13:18:06.846Z,99084.88
2023-04-14T13:21:10.280Z,99066.63
2023-04-14T13:24:13.094Z,99095.06
2023-04-14T13:27:19.238Z,99096.56
2023-04-14T13:30:21.810Z,99095.28
2023-04-14T13:33:25.626Z,99090.00
2023-04-14T13:36:28.336Z,99088.22
2023-04-14T13:39:30.920Z,99090.59
2023-04-14T13:42:33.349Z,99101.00
2023-04-14T13:45:35.942Z,99051.47
2023-04-14T13:48:38.876Z,99077.16
2023-04-14T13:51:41.349Z,99067.09
2023-04-14T13:54:43.821Z,99074.81
2023-04-14T13:57:46.610Z,99074.84
2023-04-14T14:00:49.002Z,99053.84
2023-04-14T14:03:51.653Z,99070.97
2023-04-14T14:06:54.178Z,99047.44
2023-04-14T14:09:56.610Z,99059.88
2023-04-14T14:12:58.989Z,99061.31
2023-04-14T14:16:01.785Z,99057.50
2023-04-14T14:19:07.357Z,99013.88
2023-04-14T14:22:09.942Z,99053.50
2023-04-14T14:25:20.113Z,99056.88
2023-04-14T14:28:23.606Z,99085.81
2023-04-14T14:31:26.157Z,99063.16
2023-04-14T14:34:28.817Z,99060.94
2023-04-14T14:37:31.220Z,99092.03
2023-04-14T14:40:33.593Z,99080.44
2023-04-14T14:43:36.318Z,99078.69
2023-04-14T14:46:38.778Z,99076.03
2023-04-14T14:49:48.816Z,99101.09
2023-04-14T14:52:59.492Z,99101.28
2023-04-14T14:56:01.978Z,99108.44
2023-04-14T14:59:04.607Z,99107.19
2023-04-14T15:02:07.227Z,99079.91
2023-04-14T15:05:09.706Z,99082.16
2023-04-14T15:08:12.057Z,99095.09
2023-04-14T15:11:14.823Z,99085.94
2023-04-14T15:14:17.240Z,99085.72
2023-04-14T15:17:19.636Z,99106.78
2023-04-14T15:20:22.284Z,99106.63
2023-04-14T15:23:24.745Z,99095.44
2023-04-14T15:26:27.363Z,99108.75
2023-04-14T15:29:30.592Z,99118.59
2023-04-14T15:32:33.353Z,99088.91
2023-04-14T15:35:38.818Z,99097.63
2023-04-14T15:38:42.438Z,99090.28
2023-04-14T15:41:47.605Z,99087.59
2023-04-14T15:44:53.141Z,99122.13
2023-04-14T15:47:55.951Z,99108.09
2023-04-14T15:50:58.500Z,99124.72
2023-04-14T15:54:01.175Z,99118.63
2023-04-14T15:57:04.285Z,99125.84
2023-04-14T16:00:07.776Z,99116.84
2023-04-14T16:03:16.596Z,99096.38
2023-04-14T16:06:19.055Z,99116.25
2023-04-14T16:09:21.593Z,99125.31
2023-04-14T16:12:24.320Z,99147.28
2023-04-14T16:15:27.425Z,99180.22
2023-04-14T16:18:29.793Z,99197.41
2023-04-14T16:21:32.228Z,99173.75
2023-04-14T16:24:34.854Z,99168.53
2023-04-14T16:27:37.459Z,99185.53
2023-04-14T16:30:39.885Z,99205.47
2023-04-14T16:33:42.398Z,99209.44
2023-04-14T16:36:46.538Z,99210.34
2023-04-14T16:39:56.253Z,99211.94
2023-04-14T16:42:58.732Z,99228.72
2023-04-14T16:46:03.112Z,99176.47
2023-04-14T16:49:07.806Z,99221.50
2023-04-14T16:52:10.257Z,99207.44
2023-04-14T16:55:12.868Z,99208.63
2023-04-14T16:58:15.383Z,99253.19
2023-04-14T17:01:18.138Z,99257.28
2023-04-14T17:04:20.998Z,99265.16
2023-04-14T17:07:23.451Z,99260.72
2023-04-14T17:10:28.899Z,99276.69
2023-04-14T17:13:31.334Z,99268.22
2023-04-14T17:16:33.998Z,99267.41
2023-04-14T17:19:36.675Z,99275.34
2023-04-14T17:22:39.073Z,99273.44
2023-04-14T17:25:42.830Z,99229.09
2023-04-14T17:28:46.380Z,99247.63
2023-04-14T17:31:49.880Z,99217.72
2023-04-14T17:34:52.511Z,99248.75
2023-04-14T17:37:55.837Z,99262.25
2023-04-14T17:40:59.396Z,99261.69
2023-04-14T17:44:02.321Z,99265.59
2023-04-14T17:47:12.978Z,99267.38
2023-04-14T17:50:15.945Z,99257.50
2023-04-14T17:53:18.716Z,99272.13
2023-04-14T17:56:22.424Z,99270.47
2023-04-14T17:59:25.165Z,99310.41
2023-04-14T18:02:30.698Z,99287.94
2023-04-14T18:05:33.420Z,99290.66
2023-04-14T18:08:36.062Z,99303.78
2023-04-14T18:11:38.686Z,99337.28
2023-04-14T18:14:41.633Z,99342.56
2023-04-14T18:17:45.379Z,99314.69
2023-04-14T18:20:52.130Z,99313.78
2023-04-14T18:27:00.384Z,99333.31
2023-04-14T18:30:03.162Z,99332.19
2023-04-14T18:33:06.301Z,99365.56
2023-04-14T18:36:08.766Z,99355.22
2023-04-14T18:39:12.463Z,99364.97
2023-04-14T18:42:15.408Z,99341.31
2023-04-14T18:45:18.249Z,99348.16
2023-04-14T18:48:20.872Z,99367.56
2023-04-14T18:51:23.568Z,99365.16
2023-04-14T18:54:26.411Z,99348.69
2023-04-14T18:57:30.787Z,99378.84
2023-04-14T19:00:33.837Z,99363.47
2023-04-14T19:03:37.743Z,99379.69
2023-04-14T19:06:40.560Z,99399.34
2023-04-14T19:09:43.259Z,99403.63
2023-04-14T19:12:46.192Z,99378.44
2023-04-14T19:15:48.836Z,99407.81
2023-04-14T19:18:52.433Z,99361.06
2023-04-14T19:21:55.133Z,99408.38
2023-04-14T19:24:57.964Z,99387.16
2023-04-14T19:28:02.217Z,99421.66
2023-04-14T19:31:05.041Z,99418.69
2023-04-14T19:34:09.193Z,99330.50
2023-04-14T19:37:11.971Z,99397.16
2023-04-14T19:40:14.740Z,99412.06
2023-04-14T19:43:18.718Z,99430.16
2023-04-14T19:46:21.843Z,99402.50
2023-04-14T19:49:24.773Z,99403.59
2023-04-14T19:52:28.309Z,99420.00
2023-04-14T19:55:31.275Z,99426.34
2023-04-14T19:58:34.065Z,99404.16
2023-04-14T20:01:36.549Z,99438.94
2023-04-14T20:04:39.862Z,99443.19
2023-04-14T20:07:42.906Z,99428.31
2023-04-14T20:10:46.072Z,99413.72
2023-04-14T20:13:48.654Z,99400.38
2023-04-14T20:16:51.495Z,99443.91
2023-04-14T20:19:54.226Z,99440.53
2023-04-14T20:22:58.710Z,99413.44
2023-04-14T20:26:01.780Z,99447.06
2023-04-14T20:29:05.349Z,99450.44
2023-04-14T20:32:09.552Z,99454.25
2023-04-14T20:35:12.255Z,99430.88
2023-04-14T20:38:15.627Z,99418.81
2023-04-14T20:41:18.792Z,99461.00
2023-04-14T20:44:21.557Z,99468.47
2023-04-14T20:47:24.564Z,99455.25
2023-04-14T20:50:27.733Z,99464.47
2023-04-14T20:53:30.452Z,99444.38
2023-04-14T20:56:34.131Z,99438.44
2023-04-14T20:59:36.700Z,99475.78
2023-04-14T21:02:39.361Z,99465.72
2023-04-14T21:05:42.225Z,99471.47
2023-04-14T21:08:44.925Z,99480.81
2023-04-14T21:11:47.853Z,99462.13
2023-04-14T21:15:49.116Z,99457.31
2023-04-14T21:18:33.032Z,99485.34
2023-04-14T21:21:35.790Z,99480.13
2023-04-14T21:24:38.207Z,99479.38
2023-04-14T21:27:40.626Z,99478.69
2023-04-14T21:30:44.387Z,99477.53
2023-04-14T21:33:46.896Z,99487.19
2023-04-14T21:36:49.330Z,99467.38
2023-04-14T21:39:51.774Z,99477.81
2023-04-14T21:42:54.341Z,99485.66
2023-04-14T21:45:57.153Z,99480.00
2023-04-14T21:48:59.903Z,99481.47
2023-04-14T21:52:02.611Z,99481.63
2023-04-14T21:55:05.478Z,99493.47
2023-04-14T21:58:07.890Z,99492.09
2023-04-14T22:01:10.714Z,99509.22
2023-04-14T22:04:22.170Z,99508.94
2023-04-14T22:07:31.465Z,99501.44
2023-04-14T22:10:34.115Z,99512.72
2023-04-14T22:13:36.592Z,99515.66
2023-04-14T22:16:39.248Z,99513.00
2023-04-14T22:19:43.157Z,99512.91
2023-04-14T22:22:45.630Z,99518.63
2023-04-14T22:25:48.206Z,99510.44
2023-04-14T22:28:50.708Z,99508.16
2023-04-14T22:31:53.140Z,99470.47
2023-04-14T22:34:55.463Z,99478.16
2023-04-14T22:37:57.940Z,99479.78
2023-04-14T22:41:01.838Z,99503.56
2023-04-14T22:44:06.566Z,99493.03
2023-04-14T22:47:09.462Z,99491.22
2023-04-14T22:50:11.843Z,99516.88
2023-04-14T22:53:14.330Z,99510.22
2023-04-14T22:56:17.225Z,99478.78
2023-04-14T22:59:19.846Z,99494.44
2023-04-14T23:02:22.928Z,99465.47
2023-04-14T23:05:25.786Z,99461.28
2023-04-14T23:08:28.238Z,99488.09
2023-04-14T23:11:31.301Z,99487.63
2023-04-14T23:14:33.750Z,99510.66
2023-04-14T23:17:36.241Z,99514.53
2023-04-14T23:20:38.701Z,99512.28
2023-04-14T23:23:41.354Z,99500.91
2023-04-14T23:26:44.458Z,99501.88
2023-04-14T23:29:46.818Z,99501.75
2023-04-14T23:32:50.058Z,99492.38
2023-04-14T23:35:52.805Z,99482.69
2023-04-14T23:38:55.180Z,99489.63
2023-04-14T23:41:58.268Z,99511.94
2023-04-14T23:45:00.880Z,99512.09
2023-04-14T23:48:06.777Z,99504.03
2023-04-14T23:51:15.863Z,99501.44
2023-04-14T23:54:22.564Z,99525.53
2023-04-14T23:57:24.999Z,99499.59
